• Join FlightAware (Why Join?)
  • Login
  • US Flag 
03:35AM EDT


 

Airport Tracker/Info


-or-


 

Live Flight TrackerFlight Track Log ✈ WJA1213 ✈ 16-May-2013 ✈ KLGA - CYYZ

Flight Track Log - Related Links

Times and Time Zones

All times are in EDT time to prevent confusion due to time zone crossing. See the WJA1213 flight status page for this flight to view local times or setup timezone preferences in your user account.

Time Position Orientation Groundspeed Altitude Reporting Facility
EDT Latitude Longitude Course Direction KTS MPH feet Rate Location/Type
05:31PM 40.7667 -73.8500 123° Southeast 158 182 1,700  Level New York TRACON
05:32PM 40.7333 -73.7833 123° Southeast 243 280 4,600 2,520 Climbing New York TRACON
05:33PM 40.7833 -73.7833 360° North 253 291 6,800 3,000 Climbing New York TRACON
05:34PM 40.8333 -73.8500 315° West 250 288 10,700 3,120 Climbing New York TRACON
05:35PM 40.8833 -73.9333 308° West 312 359 13,100 2,160 Climbing New York TRACON
05:36PM 40.9333 -74.0333 304° West 328 377 15,100 960 Climbing New York TRACON
05:37PM 40.9833 -74.1167 308° West 323 372 15,100 180 Level New York TRACON
05:38PM 41.0667 -74.1833 329° Northwest 336 387 15,500 480 Climbing New York TRACON
05:39PM 41.1500 -74.1500 17° North 316 364 16,100 300 Climbing New York TRACON
05:40PM 41.1758 -74.1450 North 312 359 16,000 -120 Descending New York Center
05:41PM 41.2500 -74.1764 342° North 321 369 16,000  Level New York Center
05:42PM 41.3022 -74.2369 319° Northwest 288 331 16,000  Level New York Center
05:43PM 41.3728 -74.3181 319° Northwest 301 346 16,100 1,560 Climbing New York Center
05:44PM 41.4328 -74.4042 313° West 306 352 19,100 3,000 Climbing New York Center
05:45PM 41.4794 -74.5064 301° West 318 366 22,200 3,000 Climbing New York Center
05:46PM 41.5175 -74.6194 294° West 330 380 25,300 2,700 Climbing New York Center
05:47PM 41.5681 -74.7303 301° West 337 388 27,700 2,280 Climbing New York Center
05:48PM 41.6181 -74.8500 299° West 356 410 29,800 1,140 Climbing New York Center
05:49PM 41.6700 -74.9697 300° West 368 423 30,000 60 Climbing New York Center
05:50PM 41.7200 -75.0894 299° West 373 429 30,000  Level New York Center
05:51PM 41.7739 -75.2097 301° West 373 429 30,000  Level New York Center
05:52PM 41.8233 -75.3300 299° West 373 429 30,000  Level New York Center
05:53PM 41.8728 -75.4503 299° West 373 429 30,000  Level New York Center
05:54PM 41.9222 -75.5681 299° West 373 429 30,000  Level New York Center
05:55PM 41.9714 -75.6889 299° West 373 429 30,000  Level New York Center
05:56PM 42.0206 -75.8069 299° West 367 422 30,000  Level New York Center
05:57PM 42.0697 -75.9253 299° West 367 422 30,000  Level New York Center
05:58PM 42.1186 -76.0408 300° West 367 422 30,000  Level New York Center
05:59PM 42.1744 -76.1950 296° West 381 438 30,000  Level Cleveland Center
06:00PM 42.2167 -76.3211 294° West 376 433 30,000  Level Cleveland Center
06:01PM 42.2544 -76.4450 292° West 365 420 30,000  Level Cleveland Center
06:02PM 42.2942 -76.5658 294° West 365 420 30,000  Level Cleveland Center
06:03PM 42.3319 -76.6900 292° West 365 420 30,000  Level Cleveland Center
06:04PM 42.3714 -76.8139 293° West 365 420 30,000  Level Cleveland Center
06:05PM 42.4108 -76.9356 294° West 365 420 30,000  Level Cleveland Center
06:06PM 42.4481 -77.0572 293° West 365 420 30,000  Level Cleveland Center
06:07PM 42.4872 -77.1789 294° West 360 414 30,000  Level Cleveland Center
06:08PM 42.5261 -77.3036 293° West 360 414 30,000  Level Cleveland Center
06:09PM 42.5631 -77.4258 292° West 360 414 30,000  Level Cleveland Center
06:10PM 42.6017 -77.5508 293° West 360 414 30,000  Level Cleveland Center
06:11PM 42.6361 -77.6706 291° West 355 409 30,000  Level Cleveland Center
06:12PM 42.6767 -77.7956 294° West 355 409 30,000  Level Cleveland Center
06:13PM 42.7106 -77.9072 292° West 355 409 30,000 -420 Level Cleveland Center
06:14PM 42.7467 -78.0300 292° West 355 409 29,200 -900 Descending Cleveland Center
06:15PM 42.7847 -78.1531 293° West 355 409 28,200 -1,020 Descending Cleveland Center
06:16PM 42.8206 -78.2761 292° West 350 403 27,200 -1,020 Descending Cleveland Center
06:17PM 42.8564 -78.3939 293° West 350 403 26,200 -1,020 Descending Cleveland Center
06:18PM 42.8919 -78.5144 292° West 350 403 25,200 -1,020 Descending Cleveland Center
06:19PM 42.9253 -78.6297 292° West 350 403 24,200 -1,020 Descending Cleveland Center
06:20PM 42.9747 -78.7358 303° West 340 391 23,200 -1,200 Descending Cleveland Center
06:22PM 43.0833 -78.9333 307° West 320 368 20,700 -1,560 Descending Toronto Center
06:23PM 43.1333 -79.0333 304° West 320 368 18,600 -1,800 Descending Toronto Center
06:24PM 43.1833 -79.1333 304° West 310 357 17,100 -1,680 Descending Toronto Center
06:25PM 43.2333 -79.2167 309° West 280 322 15,300 -1,740 Descending Toronto Center
06:26PM 43.2667 -79.2833 304° West 280 322 13,700 -1,620 Descending Toronto Center
06:27PM 43.3333 -79.3500 324° Northwest 260 299 12,100 -900 Descending Toronto Center
06:28PM 43.4000 -79.3833 340° North 260 299 12,000 -60 Descending Toronto Center
06:29PM 43.4667 -79.4000 350° North 230 265 12,000  Level Toronto Center
06:30PM 43.5167 -79.3833 14° North 240 276 12,000 -660 Level Toronto Center
06:31PM 43.5833 -79.3500 20° North 240 276 10,700 -1,440 Descending Toronto Center
06:32PM 43.6000 -79.4333 285° West 220 253 9,200 -1,440 Descending Toronto Center
06:33PM 43.5833 -79.5167 255° West 220 253 7,900 -1,020 Descending Toronto Center
06:34PM 43.5500 -79.5833 235° Southwest 220 253 7,200 -900 Descending Toronto Center
06:35PM 43.5167 -79.6333 227° Southwest 200 230 6,100 -1,260 Descending Toronto Center
06:36PM 43.4833 -79.6833 227° Southwest 200 230 4,700 -1,380 Descending Toronto Center
06:37PM 43.5000 -79.7500 289° West 180 207 3,400 -900 Descending Toronto Center
06:38PM 43.5500 -79.7500 360° North 180 207 3,000 -600 Descending Toronto Center
06:39PM 43.5833 -79.6833 55° Northeast 180 207 2,300 -780 Descending Toronto Center
06:40PM 43.6167 -79.6500 36° Northeast 160 184 1,500 -840 Descending Toronto Center
06:41PM 43.6500 -79.6167 36° Northeast 140 161 700 -840 Descending Toronto Center